KPRC/PRC METAR and TAF weather

Enter ICAO airport designator
Station Type Date Time Source
KPRC METAR 2020/01/23 14:53 UTC NOAA

KPRC 231453Z 21003KT 10SM CLR M02/M03 A3022 RMK AO2 SLP229 T10221033 53006


Station Type Date Time Source
KPRC Decoded METAR 2020/01/23 14:53 UTC NOAA

PRESCOTT LOVE FIELD, AZ, United States (KPRC) 34-39N 112-25W 1524M
Jan 23, 2020 - 09:53 AM EST / 2020.01.23 1453 UTC
Wind: from the SSW (210 degrees) at 3 MPH (3 KT):0
Visibility: 10 mile(s):0
Sky conditions: clear
Temperature: 28.0 F (-2.2 C)
Dew Point: 26.1 F (-3.3 C)
Relative Humidity: 92%
Pressure (altimeter): 30.22 in. Hg (1023 hPa)
Pressure tendency: 0.02 inches (0.6 hPa) higher than three hours ago
ob: KPRC 231453Z 21003KT 10SM CLR M02/M03 A3022 RMK AO2 SLP229 T10221033 53006
cycle: 15

Station Type Date Time Source
KPRC TAF 2020/01/23 12:39 UTC NOAA

TAF KPRC 231137Z 2312/2412 21003KT P6SM SKC
FM231900 36007KT P6SM SKC

Example: see airport list